sensor_id;sensor_type;location;lat;lon;timestamp;P1;durP1;ratioP1;P2;durP2;ratioP2
67049;SDS011;53955;52.442;13.284;2023-06-04T00:02:16;2.97;;;1.73;;
67049;SDS011;53955;52.442;13.284;2023-06-04T00:04:42;3.67;;;1.70;;
67049;SDS011;53955;52.442;13.284;2023-06-04T00:07:09;3.63;;;1.42;;
67049;SDS011;53955;52.442;13.284;2023-06-04T00:09:37;4.18;;;2.15;;
67049;SDS011;53955;52.442;13.284;2023-06-04T00:12:04;2.88;;;1.80;;
67049;SDS011;53955;52.442;13.284;2023-06-04T00:14:31;4.35;;;2.40;;
67049;SDS011;53955;52.442;13.284;2023-06-04T00:16:57;4.18;;;1.77;;
67049;SDS011;53955;52.442;13.284;2023-06-04T00:19:24;2.47;;;1.50;;
67049;SDS011;53955;52.442;13.284;2023-06-04T00:21:50;3.58;;;1.60;;
67049;SDS011;53955;52.442;13.284;2023-06-04T00:24:18;3.47;;;1.92;;
67049;SDS011;53955;52.442;13.284;2023-06-04T00:26:46;3.75;;;2.15;;
67049;SDS011;53955;52.442;13.284;2023-06-04T00:29:12;6.68;;;2.53;;
67049;SDS011;53955;52.442;13.284;2023-06-04T00:31:39;5.50;;;2.80;;
67049;SDS011;53955;52.442;13.284;2023-06-04T00:34:06;5.03;;;2.60;;
67049;SDS011;53955;52.442;13.284;2023-06-04T00:36:32;3.63;;;1.98;;
67049;SDS011;53955;52.442;13.284;2023-06-04T00:38:59;4.88;;;2.22;;
67049;SDS011;53955;52.442;13.284;2023-06-04T00:41:25;3.55;;;2.00;;
67049;SDS011;53955;52.442;13.284;2023-06-04T00:43:53;4.03;;;2.17;;
67049;SDS011;53955;52.442;13.284;2023-06-04T00:46:22;3.78;;;2.05;;
67049;SDS011;53955;52.442;13.284;2023-06-04T00:48:50;5.05;;;1.90;;
67049;SDS011;53955;52.442;13.284;2023-06-04T00:51:17;3.92;;;1.88;;
67049;SDS011;53955;52.442;13.284;2023-06-04T00:53:44;4.07;;;2.20;;
67049;SDS011;53955;52.442;13.284;2023-06-04T00:56:11;4.30;;;1.90;;
67049;SDS011;53955;52.442;13.284;2023-06-04T00:58:38;3.13;;;1.85;;
67049;SDS011;53955;52.442;13.284;2023-06-04T01:01:07;3.42;;;1.63;;
67049;SDS011;53955;52.442;13.284;2023-06-04T01:03:39;3.30;;;2.00;;
67049;SDS011;53955;52.442;13.284;2023-06-04T01:06:11;3.05;;;1.90;;
67049;SDS011;53955;52.442;13.284;2023-06-04T01:08:46;4.10;;;2.28;;
67049;SDS011;53955;52.442;13.284;2023-06-04T01:11:14;5.63;;;2.30;;
67049;SDS011;53955;52.442;13.284;2023-06-04T01:13:41;4.78;;;1.67;;
67049;SDS011;53955;52.442;13.284;2023-06-04T01:16:08;5.80;;;2.10;;
67049;SDS011;53955;52.442;13.284;2023-06-04T01:18:38;2.72;;;1.90;;
67049;SDS011;53955;52.442;13.284;2023-06-04T01:21:08;4.03;;;2.20;;
67049;SDS011;53955;52.442;13.284;2023-06-04T01:23:40;2.90;;;1.60;;
67049;SDS011;53955;52.442;13.284;2023-06-04T01:26:12;3.10;;;1.92;;
67049;SDS011;53955;52.442;13.284;2023-06-04T01:28:46;3.50;;;1.90;;
67049;SDS011;53955;52.442;13.284;2023-06-04T01:31:14;2.72;;;1.70;;
67049;SDS011;53955;52.442;13.284;2023-06-04T01:33:41;4.88;;;2.25;;
67049;SDS011;53955;52.442;13.284;2023-06-04T01:36:08;3.58;;;2.00;;
67049;SDS011;53955;52.442;13.284;2023-06-04T01:38:37;3.55;;;1.70;;
67049;SDS011;53955;52.442;13.284;2023-06-04T01:41:03;4.70;;;1.80;;
67049;SDS011;53955;52.442;13.284;2023-06-04T01:43:30;4.90;;;2.00;;
67049;SDS011;53955;52.442;13.284;2023-06-04T01:46:00;4.70;;;2.10;;
67049;SDS011;53955;52.442;13.284;2023-06-04T01:48:27;3.55;;;1.90;;
67049;SDS011;53955;52.442;13.284;2023-06-04T01:50:54;5.90;;;1.90;;
67049;SDS011;53955;52.442;13.284;2023-06-04T01:53:21;4.75;;;2.03;;
67049;SDS011;53955;52.442;13.284;2023-06-04T01:55:47;4.32;;;1.50;;
67049;SDS011;53955;52.442;13.284;2023-06-04T01:58:15;3.55;;;1.60;;
67049;SDS011;53955;52.442;13.284;2023-06-04T02:00:47;2.20;;;1.35;;
67049;SDS011;53955;52.442;13.284;2023-06-04T02:03:14;3.30;;;1.70;;
67049;SDS011;53955;52.442;13.284;2023-06-04T02:05:42;3.45;;;1.85;;
67049;SDS011;53955;52.442;13.284;2023-06-04T02:08:11;3.58;;;1.70;;
67049;SDS011;53955;52.442;13.284;2023-06-04T02:10:43;3.92;;;2.00;;
67049;SDS011;53955;52.442;13.284;2023-06-04T02:13:11;3.33;;;1.70;;
67049;SDS011;53955;52.442;13.284;2023-06-04T02:15:37;2.50;;;1.88;;
67049;SDS011;53955;52.442;13.284;2023-06-04T02:18:11;2.63;;;1.50;;
67049;SDS011;53955;52.442;13.284;2023-06-04T02:20:40;2.90;;;1.70;;
67049;SDS011;53955;52.442;13.284;2023-06-04T02:23:08;4.53;;;1.90;;
67049;SDS011;53955;52.442;13.284;2023-06-04T02:25:35;5.00;;;2.10;;
67049;SDS011;53955;52.442;13.284;2023-06-04T02:28:02;3.40;;;1.70;;
67049;SDS011;53955;52.442;13.284;2023-06-04T02:30:28;2.72;;;1.77;;
67049;SDS011;53955;52.442;13.284;2023-06-04T02:32:55;2.78;;;1.75;;
67049;SDS011;53955;52.442;13.284;2023-06-04T02:35:22;4.95;;;1.90;;
67049;SDS011;53955;52.442;13.284;2023-06-04T02:37:51;3.05;;;1.60;;
67049;SDS011;53955;52.442;13.284;2023-06-04T02:40:17;5.18;;;2.45;;
67049;SDS011;53955;52.442;13.284;2023-06-04T02:42:44;2.85;;;1.55;;
67049;SDS011;53955;52.442;13.284;2023-06-04T02:45:10;2.87;;;1.60;;
67049;SDS011;53955;52.442;13.284;2023-06-04T02:47:37;4.38;;;1.92;;
67049;SDS011;53955;52.442;13.284;2023-06-04T02:50:04;3.55;;;2.15;;
67049;SDS011;53955;52.442;13.284;2023-06-04T02:52:32;3.10;;;1.60;;
67049;SDS011;53955;52.442;13.284;2023-06-04T02:55:03;3.63;;;1.90;;
67049;SDS011;53955;52.442;13.284;2023-06-04T02:57:31;4.83;;;1.83;;
67049;SDS011;53955;52.442;13.284;2023-06-04T03:02:24;4.18;;;2.13;;
67049;SDS011;53955;52.442;13.284;2023-06-04T03:04:52;3.88;;;1.70;;
67049;SDS011;53955;52.442;13.284;2023-06-04T03:07:20;2.40;;;1.73;;
67049;SDS011;53955;52.442;13.284;2023-06-04T03:09:47;6.47;;;2.03;;
67049;SDS011;53955;52.442;13.284;2023-06-04T03:12:15;3.15;;;1.80;;
67049;SDS011;53955;52.442;13.284;2023-06-04T03:14:42;4.20;;;2.20;;
67049;SDS011;53955;52.442;13.284;2023-06-04T03:17:09;3.03;;;1.85;;
67049;SDS011;53955;52.442;13.284;2023-06-04T03:19:36;3.22;;;1.65;;
67049;SDS011;53955;52.442;13.284;2023-06-04T03:22:04;4.03;;;1.70;;
67049;SDS011;53955;52.442;13.284;2023-06-04T03:24:32;2.83;;;1.80;;
67049;SDS011;53955;52.442;13.284;2023-06-04T03:27:01;4.60;;;1.70;;
67049;SDS011;53955;52.442;13.284;2023-06-04T03:29:30;3.97;;;2.00;;
67049;SDS011;53955;52.442;13.284;2023-06-04T03:31:57;5.15;;;2.35;;
67049;SDS011;53955;52.442;13.284;2023-06-04T03:34:23;4.18;;;2.10;;
67049;SDS011;53955;52.442;13.284;2023-06-04T03:36:50;4.72;;;1.90;;
67049;SDS011;53955;52.442;13.284;2023-06-04T03:39:17;3.33;;;1.52;;
67049;SDS011;53955;52.442;13.284;2023-06-04T03:41:44;3.88;;;1.73;;
67049;SDS011;53955;52.442;13.284;2023-06-04T03:44:12;3.20;;;1.77;;
67049;SDS011;53955;52.442;13.284;2023-06-04T03:46:40;3.85;;;1.95;;
67049;SDS011;53955;52.442;13.284;2023-06-04T03:49:08;3.22;;;1.83;;
67049;SDS011;53955;52.442;13.284;2023-06-04T03:51:35;5.65;;;1.95;;
67049;SDS011;53955;52.442;13.284;2023-06-04T03:54:02;5.13;;;1.80;;
67049;SDS011;53955;52.442;13.284;2023-06-04T03:56:29;3.60;;;1.80;;
67049;SDS011;53955;52.442;13.284;2023-06-04T03:58:55;4.90;;;1.70;;
67049;SDS011;53955;52.442;13.284;2023-06-04T04:01:22;3.60;;;1.50;;
67049;SDS011;53955;52.442;13.284;2023-06-04T04:03:51;4.60;;;2.03;;
67049;SDS011;53955;52.442;13.284;2023-06-04T04:06:18;4.05;;;2.10;;
67049;SDS011;53955;52.442;13.284;2023-06-04T04:08:45;3.33;;;1.90;;
67049;SDS011;53955;52.442;13.284;2023-06-04T04:11:13;3.65;;;1.90;;
67049;SDS011;53955;52.442;13.284;2023-06-04T04:13:41;4.10;;;2.05;;
67049;SDS011;53955;52.442;13.284;2023-06-04T04:16:08;3.25;;;1.70;;
67049;SDS011;53955;52.442;13.284;2023-06-04T04:18:35;3.00;;;1.77;;
67049;SDS011;53955;52.442;13.284;2023-06-04T04:21:04;3.15;;;1.63;;
67049;SDS011;53955;52.442;13.284;2023-06-04T04:23:32;3.10;;;1.60;;
67049;SDS011;53955;52.442;13.284;2023-06-04T04:25:58;3.95;;;2.10;;
67049;SDS011;53955;52.442;13.284;2023-06-04T04:28:26;4.25;;;2.33;;
67049;SDS011;53955;52.442;13.284;2023-06-04T04:30:53;3.78;;;1.60;;
67049;SDS011;53955;52.442;13.284;2023-06-04T04:33:21;3.33;;;1.83;;
67049;SDS011;53955;52.442;13.284;2023-06-04T04:35:49;5.72;;;1.88;;
67049;SDS011;53955;52.442;13.284;2023-06-04T04:38:18;6.22;;;2.17;;
67049;SDS011;53955;52.442;13.284;2023-06-04T04:40:48;3.80;;;2.03;;
67049;SDS011;53955;52.442;13.284;2023-06-04T04:43:17;3.55;;;1.70;;
67049;SDS011;53955;52.442;13.284;2023-06-04T04:45:54;4.05;;;1.80;;
67049;SDS011;53955;52.442;13.284;2023-06-04T04:48:20;4.10;;;2.00;;
67049;SDS011;53955;52.442;13.284;2023-06-04T04:50:47;3.90;;;2.05;;
67049;SDS011;53955;52.442;13.284;2023-06-04T04:53:13;3.88;;;1.92;;
67049;SDS011;53955;52.442;13.284;2023-06-04T04:55:41;3.17;;;1.73;;
67049;SDS011;53955;52.442;13.284;2023-06-04T04:58:08;4.05;;;1.67;;
67049;SDS011;53955;52.442;13.284;2023-06-04T05:03:01;3.05;;;1.50;;
67049;SDS011;53955;52.442;13.284;2023-06-04T05:05:27;3.00;;;1.48;;
67049;SDS011;53955;52.442;13.284;2023-06-04T05:07:54;4.18;;;1.08;;
67049;SDS011;53955;52.442;13.284;2023-06-04T05:10:21;2.90;;;1.23;;
67049;SDS011;53955;52.442;13.284;2023-06-04T05:12:52;2.13;;;1.08;;
67049;SDS011;53955;52.442;13.284;2023-06-04T05:15:18;3.40;;;1.27;;
67049;SDS011;53955;52.442;13.284;2023-06-04T05:17:45;4.68;;;1.10;;
67049;SDS011;53955;52.442;13.284;2023-06-04T05:20:12;2.80;;;1.23;;
67049;SDS011;53955;52.442;13.284;2023-06-04T05:22:40;4.38;;;1.10;;
67049;SDS011;53955;52.442;13.284;2023-06-04T05:25:07;5.32;;;1.30;;
67049;SDS011;53955;52.442;13.284;2023-06-04T05:27:34;2.58;;;1.02;;
67049;SDS011;53955;52.442;13.284;2023-06-04T05:30:03;2.10;;;1.20;;
67049;SDS011;53955;52.442;13.284;2023-06-04T05:32:30;2.33;;;1.00;;
67049;SDS011;53955;52.442;13.284;2023-06-04T05:34:57;2.38;;;1.05;;
67049;SDS011;53955;52.442;13.284;2023-06-04T05:37:24;2.05;;;0.80;;
67049;SDS011;53955;52.442;13.284;2023-06-04T05:39:53;4.07;;;1.08;;
67049;SDS011;53955;52.442;13.284;2023-06-04T05:42:21;1.75;;;0.90;;
67049;SDS011;53955;52.442;13.284;2023-06-04T05:44:48;14.23;;;2.13;;
67049;SDS011;53955;52.442;13.284;2023-06-04T05:47:16;6.77;;;0.93;;
67049;SDS011;53955;52.442;13.284;2023-06-04T05:49:43;2.55;;;1.10;;
67049;SDS011;53955;52.442;13.284;2023-06-04T05:52:10;2.58;;;1.20;;
67049;SDS011;53955;52.442;13.284;2023-06-04T05:54:36;3.50;;;1.23;;
67049;SDS011;53955;52.442;13.284;2023-06-04T05:57:03;3.47;;;1.15;;
67049;SDS011;53955;52.442;13.284;2023-06-04T05:59:30;2.25;;;1.00;;
67049;SDS011;53955;52.442;13.284;2023-06-04T06:01:57;2.88;;;0.80;;
67049;SDS011;53955;52.442;13.284;2023-06-04T06:04:25;1.65;;;0.82;;
67049;SDS011;53955;52.442;13.284;2023-06-04T06:06:51;5.03;;;1.30;;
67049;SDS011;53955;52.442;13.284;2023-06-04T06:09:19;3.92;;;1.20;;
67049;SDS011;53955;52.442;13.284;2023-06-04T06:11:45;1.73;;;0.82;;
67049;SDS011;53955;52.442;13.284;2023-06-04T06:14:12;2.38;;;0.90;;
67049;SDS011;53955;52.442;13.284;2023-06-04T06:16:39;3.00;;;0.93;;
67049;SDS011;53955;52.442;13.284;2023-06-04T06:19:05;2.97;;;1.10;;
67049;SDS011;53955;52.442;13.284;2023-06-04T06:21:33;3.92;;;0.93;;
67049;SDS011;53955;52.442;13.284;2023-06-04T06:24:01;3.22;;;0.90;;
67049;SDS011;53955;52.442;13.284;2023-06-04T06:26:27;3.47;;;1.50;;
67049;SDS011;53955;52.442;13.284;2023-06-04T06:28:55;1.23;;;0.65;;
67049;SDS011;53955;52.442;13.284;2023-06-04T06:31:22;2.20;;;1.00;;
67049;SDS011;53955;52.442;13.284;2023-06-04T06:33:48;1.65;;;0.82;;
67049;SDS011;53955;52.442;13.284;2023-06-04T06:36:15;7.47;;;1.05;;
67049;SDS011;53955;52.442;13.284;2023-06-04T06:38:45;2.97;;;1.08;;
67049;SDS011;53955;52.442;13.284;2023-06-04T06:41:11;4.18;;;1.35;;
67049;SDS011;53955;52.442;13.284;2023-06-04T06:43:38;2.85;;;1.15;;
67049;SDS011;53955;52.442;13.284;2023-06-04T06:46:05;2.80;;;0.95;;
67049;SDS011;53955;52.442;13.284;2023-06-04T06:48:31;2.78;;;1.30;;
67049;SDS011;53955;52.442;13.284;2023-06-04T06:50:58;5.32;;;1.55;;
67049;SDS011;53955;52.442;13.284;2023-06-04T06:58:20;3.83;;;0.90;;
67049;SDS011;53955;52.442;13.284;2023-06-04T07:00:48;1.65;;;0.90;;
67049;SDS011;53955;52.442;13.284;2023-06-04T07:03:15;4.30;;;1.00;;
67049;SDS011;53955;52.442;13.284;2023-06-04T07:05:42;2.60;;;0.77;;
67049;SDS011;53955;52.442;13.284;2023-06-04T07:17:56;3.03;;;0.95;;
67049;SDS011;53955;52.442;13.284;2023-06-04T07:20:23;5.75;;;1.10;;
67049;SDS011;53955;52.442;13.284;2023-06-04T07:22:50;1.38;;;0.57;;
67049;SDS011;53955;52.442;13.284;2023-06-04T07:25:16;1.55;;;0.60;;
67049;SDS011;53955;52.442;13.284;2023-06-04T07:27:43;5.00;;;0.77;;
67049;SDS011;53955;52.442;13.284;2023-06-04T07:30:11;1.92;;;0.63;;
67049;SDS011;53955;52.442;13.284;2023-06-04T07:32:38;2.25;;;0.60;;
67049;SDS011;53955;52.442;13.284;2023-06-04T07:35:05;2.97;;;0.70;;
67049;SDS011;53955;52.442;13.284;2023-06-04T07:37:33;2.00;;;0.63;;
67049;SDS011;53955;52.442;13.284;2023-06-04T07:39:59;0.98;;;0.70;;
67049;SDS011;53955;52.442;13.284;2023-06-04T07:42:26;2.45;;;0.80;;
67049;SDS011;53955;52.442;13.284;2023-06-04T07:44:53;1.17;;;0.50;;
67049;SDS011;53955;52.442;13.284;2023-06-04T07:47:21;4.30;;;0.90;;
67049;SDS011;53955;52.442;13.284;2023-06-04T07:49:48;1.92;;;0.90;;
67049;SDS011;53955;52.442;13.284;2023-06-04T07:52:14;2.22;;;0.98;;
67049;SDS011;53955;52.442;13.284;2023-06-04T07:54:42;3.05;;;0.80;;
67049;SDS011;53955;52.442;13.284;2023-06-04T07:57:08;1.75;;;0.75;;
67049;SDS011;53955;52.442;13.284;2023-06-04T08:11:49;2.78;;;0.90;;
67049;SDS011;53955;52.442;13.284;2023-06-04T08:14:16;1.42;;;0.60;;
67049;SDS011;53955;52.442;13.284;2023-06-04T08:16:45;3.15;;;0.80;;
67049;SDS011;53955;52.442;13.284;2023-06-04T08:19:11;2.63;;;0.70;;
67049;SDS011;53955;52.442;13.284;2023-06-04T08:21:40;1.75;;;0.80;;
67049;SDS011;53955;52.442;13.284;2023-06-04T08:29:02;3.00;;;0.60;;
67049;SDS011;53955;52.442;13.284;2023-06-04T08:38:50;2.13;;;1.00;;
67049;SDS011;53955;52.442;13.284;2023-06-04T08:41:20;4.78;;;0.82;;
67049;SDS011;53955;52.442;13.284;2023-06-04T08:43:51;2.33;;;0.73;;
67049;SDS011;53955;52.442;13.284;2023-06-04T09:50:46;1.75;;;0.80;;
67049;SDS011;53955;52.442;13.284;2023-06-04T10:00:34;1.23;;;0.70;;
67049;SDS011;53955;52.442;13.284;2023-06-04T10:03:01;3.22;;;0.60;;
67049;SDS011;53955;52.442;13.284;2023-06-04T10:05:30;2.38;;;0.90;;
67049;SDS011;53955;52.442;13.284;2023-06-04T10:25:15;2.28;;;1.00;;
67049;SDS011;53955;52.442;13.284;2023-06-04T10:27:44;4.30;;;1.50;;
67049;SDS011;53955;52.442;13.284;2023-06-04T10:30:12;2.20;;;0.80;;
67049;SDS011;53955;52.442;13.284;2023-06-04T10:32:39;2.08;;;0.82;;
67049;SDS011;53955;52.442;13.284;2023-06-04T10:37:33;2.60;;;1.20;;
67049;SDS011;53955;52.442;13.284;2023-06-04T10:40:02;2.03;;;0.88;;
67049;SDS011;53955;52.442;13.284;2023-06-04T10:42:37;2.40;;;0.80;;
67049;SDS011;53955;52.442;13.284;2023-06-04T10:45:04;4.47;;;1.17;;
67049;SDS011;53955;52.442;13.284;2023-06-04T10:47:33;2.73;;;1.30;;
67049;SDS011;53955;52.442;13.284;2023-06-04T10:50:08;4.50;;;1.35;;
67049;SDS011;53955;52.442;13.284;2023-06-04T10:52:36;2.38;;;0.90;;
67049;SDS011;53955;52.442;13.284;2023-06-04T10:55:05;2.92;;;1.10;;
67049;SDS011;53955;52.442;13.284;2023-06-04T10:57:33;1.67;;;0.90;;
67049;SDS011;53955;52.442;13.284;2023-06-04T11:00:00;2.97;;;1.10;;
67049;SDS011;53955;52.442;13.284;2023-06-04T11:02:28;1.38;;;0.90;;
67049;SDS011;53955;52.442;13.284;2023-06-04T11:04:58;2.10;;;1.10;;
67049;SDS011;53955;52.442;13.284;2023-06-04T11:07:28;3.17;;;1.15;;
67049;SDS011;53955;52.442;13.284;2023-06-04T11:09:55;2.33;;;1.20;;
67049;SDS011;53955;52.442;13.284;2023-06-04T11:12:23;2.85;;;0.93;;
67049;SDS011;53955;52.442;13.284;2023-06-04T11:14:53;1.80;;;0.90;;
67049;SDS011;53955;52.442;13.284;2023-06-04T11:17:20;2.92;;;0.90;;
67049;SDS011;53955;52.442;13.284;2023-06-04T11:19:47;4.18;;;1.17;;
67049;SDS011;53955;52.442;13.284;2023-06-04T11:22:14;2.08;;;1.00;;
67049;SDS011;53955;52.442;13.284;2023-06-04T11:24:41;2.75;;;1.10;;
67049;SDS011;53955;52.442;13.284;2023-06-04T11:27:07;2.88;;;0.90;;
67049;SDS011;53955;52.442;13.284;2023-06-04T11:29:35;2.97;;;1.10;;
67049;SDS011;53955;52.442;13.284;2023-06-04T11:32:03;1.27;;;0.90;;
67049;SDS011;53955;52.442;13.284;2023-06-04T11:34:30;4.80;;;1.00;;
67049;SDS011;53955;52.442;13.284;2023-06-04T11:37:07;1.67;;;0.80;;
67049;SDS011;53955;52.442;13.284;2023-06-04T11:39:34;3.25;;;0.88;;
67049;SDS011;53955;52.442;13.284;2023-06-04T11:42:04;2.35;;;1.25;;
67049;SDS011;53955;52.442;13.284;2023-06-04T11:44:32;1.92;;;1.15;;
67049;SDS011;53955;52.442;13.284;2023-06-04T11:47:00;1.63;;;1.00;;
67049;SDS011;53955;52.442;13.284;2023-06-04T11:49:31;3.05;;;1.00;;
67049;SDS011;53955;52.442;13.284;2023-06-04T11:52:00;2.22;;;1.00;;
67049;SDS011;53955;52.442;13.284;2023-06-04T11:54:28;1.70;;;1.02;;
67049;SDS011;53955;52.442;13.284;2023-06-04T11:56:54;1.55;;;1.00;;
67049;SDS011;53955;52.442;13.284;2023-06-04T11:59:21;4.00;;;1.40;;
67049;SDS011;53955;52.442;13.284;2023-06-04T12:01:48;2.03;;;1.00;;
67049;SDS011;53955;52.442;13.284;2023-06-04T12:04:16;3.20;;;0.80;;
67049;SDS011;53955;52.442;13.284;2023-06-04T12:06:50;2.63;;;0.80;;
67049;SDS011;53955;52.442;13.284;2023-06-04T12:09:21;4.15;;;1.08;;
67049;SDS011;53955;52.442;13.284;2023-06-04T12:11:49;1.60;;;0.85;;
67049;SDS011;53955;52.442;13.284;2023-06-04T12:14:16;2.55;;;0.90;;
67049;SDS011;53955;52.442;13.284;2023-06-04T12:16:43;3.55;;;1.20;;
67049;SDS011;53955;52.442;13.284;2023-06-04T12:19:22;3.65;;;1.15;;
67049;SDS011;53955;52.442;13.284;2023-06-04T12:21:58;4.65;;;1.27;;
67049;SDS011;53955;52.442;13.284;2023-06-04T12:24:26;2.92;;;0.90;;
67049;SDS011;53955;52.442;13.284;2023-06-04T12:27:00;1.40;;;0.77;;
67049;SDS011;53955;52.442;13.284;2023-06-04T12:29:28;3.22;;;0.90;;
67049;SDS011;53955;52.442;13.284;2023-06-04T12:32:01;2.17;;;0.90;;
67049;SDS011;53955;52.442;13.284;2023-06-04T12:34:31;2.38;;;0.80;;
67049;SDS011;53955;52.442;13.284;2023-06-04T12:36:57;3.70;;;1.00;;
67049;SDS011;53955;52.442;13.284;2023-06-04T12:39:24;3.58;;;0.80;;
67049;SDS011;53955;52.442;13.284;2023-06-04T12:41:50;3.35;;;0.88;;
67049;SDS011;53955;52.442;13.284;2023-06-04T13:25:52;1.55;;;0.95;;
67049;SDS011;53955;52.442;13.284;2023-06-04T13:28:19;3.63;;;1.05;;
67049;SDS011;53955;52.442;13.284;2023-06-04T13:30:46;2.35;;;1.00;;
67049;SDS011;53955;52.442;13.284;2023-06-04T13:33:12;3.33;;;0.80;;
67049;SDS011;53955;52.442;13.284;2023-06-04T13:35:39;3.92;;;1.25;;
67049;SDS011;53955;52.442;13.284;2023-06-04T13:38:07;1.63;;;1.00;;
67049;SDS011;53955;52.442;13.284;2023-06-04T13:40:34;2.70;;;1.20;;
67049;SDS011;53955;52.442;13.284;2023-06-04T13:43:02;3.92;;;1.10;;
67049;SDS011;53955;52.442;13.284;2023-06-04T13:55:20;4.05;;;1.20;;
67049;SDS011;53955;52.442;13.284;2023-06-04T13:57:46;2.40;;;1.20;;
67049;SDS011;53955;52.442;13.284;2023-06-04T14:00:15;2.35;;;1.00;;
67049;SDS011;53955;52.442;13.284;2023-06-04T14:02:41;2.72;;;1.10;;
67049;SDS011;53955;52.442;13.284;2023-06-04T14:05:08;2.08;;;1.08;;
67049;SDS011;53955;52.442;13.284;2023-06-04T14:07:35;3.22;;;1.45;;
67049;SDS011;53955;52.442;13.284;2023-06-04T14:10:02;3.50;;;1.20;;
67049;SDS011;53955;52.442;13.284;2023-06-04T14:12:29;4.72;;;1.48;;
67049;SDS011;53955;52.442;13.284;2023-06-04T14:27:09;3.28;;;1.15;;
67049;SDS011;53955;52.442;13.284;2023-06-04T14:51:39;4.80;;;1.10;;
67049;SDS011;53955;52.442;13.284;2023-06-04T14:54:06;2.70;;;1.17;;
67049;SDS011;53955;52.442;13.284;2023-06-04T14:56:32;4.15;;;1.27;;
67049;SDS011;53955;52.442;13.284;2023-06-04T14:58:59;4.80;;;1.05;;
67049;SDS011;53955;52.442;13.284;2023-06-04T15:01:26;4.22;;;1.05;;
67049;SDS011;53955;52.442;13.284;2023-06-04T15:03:53;2.72;;;0.90;;
67049;SDS011;53955;52.442;13.284;2023-06-04T15:06:19;2.10;;;0.93;;
67049;SDS011;53955;52.442;13.284;2023-06-04T16:24:36;3.15;;;1.10;;
67049;SDS011;53955;52.442;13.284;2023-06-04T16:39:17;3.20;;;1.35;;
67049;SDS011;53955;52.442;13.284;2023-06-04T16:41:44;2.58;;;1.30;;
67049;SDS011;53955;52.442;13.284;2023-06-04T16:44:10;3.50;;;0.95;;
67049;SDS011;53955;52.442;13.284;2023-06-04T17:20:50;5.10;;;1.20;;
67049;SDS011;53955;52.442;13.284;2023-06-04T17:23:20;2.75;;;1.20;;
67049;SDS011;53955;52.442;13.284;2023-06-04T17:25:49;3.60;;;1.10;;
67049;SDS011;53955;52.442;13.284;2023-06-04T17:28:16;6.10;;;1.40;;
67049;SDS011;53955;52.442;13.284;2023-06-04T17:30:43;2.83;;;1.33;;
67049;SDS011;53955;52.442;13.284;2023-06-04T17:33:10;2.15;;;0.95;;
67049;SDS011;53955;52.442;13.284;2023-06-04T17:35:36;3.28;;;1.10;;
67049;SDS011;53955;52.442;13.284;2023-06-04T17:38:03;3.58;;;1.05;;
67049;SDS011;53955;52.442;13.284;2023-06-04T17:40:30;2.72;;;1.10;;
67049;SDS011;53955;52.442;13.284;2023-06-04T17:42:58;2.47;;;1.10;;
67049;SDS011;53955;52.442;13.284;2023-06-04T17:45:24;2.50;;;1.15;;
67049;SDS011;53955;52.442;13.284;2023-06-04T17:47:51;2.97;;;1.30;;
67049;SDS011;53955;52.442;13.284;2023-06-04T17:50:17;4.05;;;1.85;;
67049;SDS011;53955;52.442;13.284;2023-06-04T17:52:44;2.70;;;1.27;;
67049;SDS011;53955;52.442;13.284;2023-06-04T17:55:11;5.00;;;2.20;;
67049;SDS011;53955;52.442;13.284;2023-06-04T17:57:38;4.25;;;1.50;;
67049;SDS011;53955;52.442;13.284;2023-06-04T18:00:08;4.95;;;1.20;;
67049;SDS011;53955;52.442;13.284;2023-06-04T18:02:36;2.28;;;1.20;;
67049;SDS011;53955;52.442;13.284;2023-06-04T18:05:03;1.70;;;0.93;;
67049;SDS011;53955;52.442;13.284;2023-06-04T18:07:30;4.45;;;1.30;;
67049;SDS011;53955;52.442;13.284;2023-06-04T18:09:56;3.70;;;1.33;;
67049;SDS011;53955;52.442;13.284;2023-06-04T18:12:23;3.38;;;1.10;;
67049;SDS011;53955;52.442;13.284;2023-06-04T18:14:49;3.22;;;1.20;;
67049;SDS011;53955;52.442;13.284;2023-06-04T18:17:17;5.32;;;1.25;;
67049;SDS011;53955;52.442;13.284;2023-06-04T18:19:44;5.53;;;1.38;;
67049;SDS011;53955;52.442;13.284;2023-06-04T18:22:11;1.98;;;0.98;;
67049;SDS011;53955;52.442;13.284;2023-06-04T18:24:37;2.08;;;0.98;;
67049;SDS011;53955;52.442;13.284;2023-06-04T18:27:04;6.30;;;2.00;;
67049;SDS011;53955;52.442;13.284;2023-06-04T18:29:31;4.20;;;1.75;;
67049;SDS011;53955;52.442;13.284;2023-06-04T18:31:57;2.65;;;1.20;;
67049;SDS011;53955;52.442;13.284;2023-06-04T18:34:25;2.25;;;1.30;;
67049;SDS011;53955;52.442;13.284;2023-06-04T18:36:53;3.47;;;1.17;;
67049;SDS011;53955;52.442;13.284;2023-06-04T18:39:21;2.53;;;1.25;;
67049;SDS011;53955;52.442;13.284;2023-06-04T18:41:49;4.40;;;1.98;;
67049;SDS011;53955;52.442;13.284;2023-06-04T18:44:16;1.92;;;1.25;;
67049;SDS011;53955;52.442;13.284;2023-06-04T18:46:43;2.40;;;1.17;;
67049;SDS011;53955;52.442;13.284;2023-06-04T19:13:39;2.88;;;1.50;;
67049;SDS011;53955;52.442;13.284;2023-06-04T19:16:06;2.63;;;1.35;;
67049;SDS011;53955;52.442;13.284;2023-06-04T20:29:35;4.03;;;1.77;;
67049;SDS011;53955;52.442;13.284;2023-06-04T20:32:02;3.15;;;1.70;;
67049;SDS011;53955;52.442;13.284;2023-06-04T20:34:30;5.25;;;2.17;;
67049;SDS011;53955;52.442;13.284;2023-06-04T20:36:57;6.00;;;2.00;;
67049;SDS011;53955;52.442;13.284;2023-06-04T20:39:27;6.93;;;1.90;;
67049;SDS011;53955;52.442;13.284;2023-06-04T20:41:55;4.55;;;2.10;;
67049;SDS011;53955;52.442;13.284;2023-06-04T20:44:22;4.10;;;1.80;;
67049;SDS011;53955;52.442;13.284;2023-06-04T20:46:49;4.40;;;2.25;;
67049;SDS011;53955;52.442;13.284;2023-06-04T20:49:15;5.97;;;2.20;;
67049;SDS011;53955;52.442;13.284;2023-06-04T20:51:43;5.93;;;2.25;;
67049;SDS011;53955;52.442;13.284;2023-06-04T20:54:10;4.60;;;2.28;;
67049;SDS011;53955;52.442;13.284;2023-06-04T20:56:38;4.00;;;2.13;;
67049;SDS011;53955;52.442;13.284;2023-06-04T20:59:04;6.47;;;2.60;;
67049;SDS011;53955;52.442;13.284;2023-06-04T21:01:31;5.35;;;2.22;;
67049;SDS011;53955;52.442;13.284;2023-06-04T21:03:57;4.55;;;2.10;;
67049;SDS011;53955;52.442;13.284;2023-06-04T21:06:24;4.60;;;2.10;;
67049;SDS011;53955;52.442;13.284;2023-06-04T21:08:52;5.30;;;2.20;;
67049;SDS011;53955;52.442;13.284;2023-06-04T21:11:19;5.28;;;2.45;;
67049;SDS011;53955;52.442;13.284;2023-06-04T21:13:45;4.15;;;2.22;;
67049;SDS011;53955;52.442;13.284;2023-06-04T21:16:12;5.82;;;2.33;;
67049;SDS011;53955;52.442;13.284;2023-06-04T21:18:38;5.20;;;2.95;;
67049;SDS011;53955;52.442;13.284;2023-06-04T21:21:05;6.07;;;2.67;;
67049;SDS011;53955;52.442;13.284;2023-06-04T21:23:31;8.68;;;2.53;;
67049;SDS011;53955;52.442;13.284;2023-06-04T21:25:59;7.28;;;2.85;;
67049;SDS011;53955;52.442;13.284;2023-06-04T21:28:26;6.18;;;2.20;;
67049;SDS011;53955;52.442;13.284;2023-06-04T21:30:53;9.05;;;2.85;;
67049;SDS011;53955;52.442;13.284;2023-06-04T21:33:19;6.25;;;2.58;;
67049;SDS011;53955;52.442;13.284;2023-06-04T21:35:46;7.97;;;2.47;;
67049;SDS011;53955;52.442;13.284;2023-06-04T21:38:12;5.80;;;2.65;;
67049;SDS011;53955;52.442;13.284;2023-06-04T21:40:39;4.40;;;2.40;;
67049;SDS011;53955;52.442;13.284;2023-06-04T21:43:07;6.50;;;2.00;;
67049;SDS011;53955;52.442;13.284;2023-06-04T21:45:33;6.70;;;2.70;;
67049;SDS011;53955;52.442;13.284;2023-06-04T21:48:00;6.43;;;2.38;;
67049;SDS011;53955;52.442;13.284;2023-06-04T21:50:26;5.00;;;2.25;;
67049;SDS011;53955;52.442;13.284;2023-06-04T21:52:53;5.13;;;2.58;;
67049;SDS011;53955;52.442;13.284;2023-06-04T21:55:20;7.60;;;2.65;;